createdAt,value
2018-06-27T00:02:25.007Z,98.00
2018-06-27T00:04:55.803Z,98.50
2018-06-27T00:07:26.319Z,98.40
2018-06-27T00:09:56.815Z,98.90
2018-06-27T00:12:27.175Z,99.40
2018-06-27T00:14:57.501Z,99.90
2018-06-27T00:17:28.105Z,99.80
2018-06-27T00:19:59.566Z,99.90
2018-06-27T00:22:30.095Z,99.90
2018-06-27T00:25:00.614Z,99.90
2018-06-27T00:27:31.163Z,99.90
2018-06-27T00:30:01.709Z,99.90
2018-06-27T00:32:46.186Z,99.90
2018-06-27T00:35:16.818Z,99.90
2018-06-27T00:37:47.285Z,99.90
2018-06-27T00:40:17.929Z,99.90
2018-06-27T00:42:48.692Z,99.90
2018-06-27T00:45:19.281Z,99.90
2018-06-27T00:48:00.220Z,99.90
2018-06-27T00:50:30.717Z,99.90
2018-06-27T00:53:01.067Z,99.90
2018-06-27T00:55:31.792Z,99.90
2018-06-27T00:58:02.363Z,99.90
2018-06-27T01:00:32.958Z,99.90
2018-06-27T01:03:11.430Z,99.90
2018-06-27T01:05:42.029Z,99.90
2018-06-27T01:10:42.636Z,99.90
2018-06-27T01:13:13.436Z,99.90
2018-06-27T01:15:43.876Z,99.90
2018-06-27T01:18:14.491Z,99.90
2018-06-27T01:20:45.219Z,99.90
2018-06-27T01:23:15.771Z,99.90
2018-06-27T01:25:46.556Z,99.90
2018-06-27T01:28:17.031Z,99.90
2018-06-27T01:30:47.547Z,99.90
2018-06-27T01:33:18.071Z,99.90
2018-06-27T01:35:48.583Z,99.90
2018-06-27T01:38:19.156Z,99.90
2018-06-27T01:40:49.774Z,99.90
2018-06-27T01:43:20.349Z,99.90
2018-06-27T01:45:50.780Z,99.90
2018-06-27T01:48:21.500Z,99.90
2018-06-27T01:50:52.375Z,99.90
2018-06-27T01:53:23.184Z,99.90
2018-06-27T01:55:53.815Z,99.90
2018-06-27T01:58:24.439Z,99.90
2018-06-27T02:00:54.938Z,99.90
2018-06-27T02:03:25.548Z,99.90
2018-06-27T02:05:56.051Z,99.90
2018-06-27T02:10:56.606Z,99.90
2018-06-27T02:13:27.085Z,99.90
2018-06-27T02:15:57.580Z,99.90
2018-06-27T02:18:27.968Z,99.90
2018-06-27T02:21:02.063Z,99.90
2018-06-27T02:23:32.513Z,99.90
2018-06-27T02:26:03.143Z,99.90
2018-06-27T02:28:33.799Z,99.90
2018-06-27T02:31:04.195Z,99.90
2018-06-27T02:33:34.597Z,99.90
2018-06-27T02:36:09.257Z,99.90
2018-06-27T02:38:39.803Z,99.90
2018-06-27T02:41:10.371Z,99.90
2018-06-27T02:43:40.850Z,99.90
2018-06-27T02:46:11.349Z,99.90
2018-06-27T02:48:41.652Z,99.90
2018-06-27T02:51:12.371Z,99.90
2018-06-27T02:53:42.808Z,99.90
2018-06-27T02:56:13.261Z,99.90
2018-06-27T02:58:43.739Z,99.90
2018-06-27T03:01:14.275Z,99.90
2018-06-27T03:03:44.680Z,99.90
2018-06-27T03:06:15.360Z,99.90
2018-06-27T03:08:45.894Z,99.90
2018-06-27T03:11:16.303Z,99.90
2018-06-27T03:13:46.732Z,99.90
2018-06-27T03:16:17.268Z,99.90
2018-06-27T03:18:54.885Z,99.90
2018-06-27T03:21:26.262Z,99.90
2018-06-27T03:23:56.848Z,99.90
2018-06-27T03:26:27.420Z,99.90
2018-06-27T03:28:57.813Z,99.90
2018-06-27T03:31:28.573Z,99.90
2018-06-27T03:33:59.115Z,99.90
2018-06-27T03:36:29.495Z,99.90
2018-06-27T03:41:30.018Z,99.90
2018-06-27T03:44:00.511Z,99.90
2018-06-27T03:46:31.085Z,99.90
2018-06-27T03:49:01.663Z,99.90
2018-06-27T03:51:32.240Z,99.90
2018-06-27T03:54:02.636Z,99.90
2018-06-27T03:56:33.052Z,99.90
2018-06-27T03:59:03.511Z,99.90
2018-06-27T04:01:34.011Z,99.90
2018-06-27T04:04:04.646Z,99.90
2018-06-27T04:06:35.028Z,99.90
2018-06-27T04:09:09.265Z,99.90
2018-06-27T04:11:40.419Z,99.90
2018-06-27T04:14:10.879Z,99.90
2018-06-27T04:16:41.577Z,99.90
2018-06-27T04:19:11.956Z,99.90
2018-06-27T04:21:42.576Z,99.90
2018-06-27T04:24:13.172Z,99.90
2018-06-27T04:26:43.624Z,99.90
2018-06-27T04:29:14.255Z,99.90
2018-06-27T04:31:44.650Z,99.90
2018-06-27T04:34:15.191Z,99.90
2018-06-27T04:36:45.611Z,99.90
2018-06-27T04:39:16.048Z,99.90
2018-06-27T04:41:46.623Z,99.90
2018-06-27T04:44:17.006Z,99.90
2018-06-27T04:46:47.636Z,99.90
2018-06-27T04:49:17.992Z,99.90
2018-06-27T04:51:48.574Z,99.90
2018-06-27T04:54:19.238Z,99.90
2018-06-27T04:56:49.815Z,99.90
2018-06-27T04:59:20.500Z,99.90
2018-06-27T05:01:51.064Z,99.90
2018-06-27T05:04:21.599Z,99.90
2018-06-27T05:06:55.300Z,99.90
2018-06-27T05:09:26.045Z,99.90
2018-06-27T05:11:56.475Z,99.90
2018-06-27T05:14:26.998Z,99.90
2018-06-27T05:16:57.371Z,99.90
2018-06-27T05:19:28.104Z,99.90
2018-06-27T05:21:58.659Z,99.90
2018-06-27T05:24:29.406Z,99.90
2018-06-27T05:26:59.935Z,99.40
2018-06-27T05:29:43.353Z,97.60
2018-06-27T05:32:13.810Z,96.20
2018-06-27T05:34:44.150Z,95.50
2018-06-27T05:37:14.615Z,95.10
2018-06-27T05:39:44.627Z,95.30
2018-06-27T05:42:15.152Z,96.20
2018-06-27T05:44:45.734Z,93.20
2018-06-27T05:47:15.882Z,82.30
2018-06-27T05:49:57.230Z,77.60
2018-06-27T05:52:27.924Z,68.10
2018-06-27T05:57:33.764Z,58.90
2018-06-27T06:00:04.745Z,58.90
2018-06-27T06:02:35.114Z,62.00
2018-06-27T06:05:05.935Z,65.60
2018-06-27T06:07:36.597Z,67.90
2018-06-27T06:10:07.169Z,71.50
2018-06-27T06:12:37.743Z,67.70
2018-06-27T06:15:08.407Z,64.00
2018-06-27T06:17:39.307Z,60.30
2018-06-27T06:20:09.804Z,60.90
2018-06-27T06:22:40.175Z,61.50
2018-06-27T06:25:10.575Z,58.30
2018-06-27T06:27:40.640Z,54.90
2018-06-27T06:30:10.807Z,58.10
2018-06-27T06:32:44.796Z,57.00
2018-06-27T06:37:44.862Z,56.90
2018-06-27T06:40:15.571Z,54.50
2018-06-27T06:42:45.740Z,53.70
2018-06-27T06:45:15.693Z,53.80
2018-06-27T06:47:53.315Z,52.40
2018-06-27T06:50:23.861Z,51.00
2018-06-27T06:52:54.327Z,51.30
2018-06-27T06:55:24.917Z,51.80
2018-06-27T06:58:03.012Z,49.70
2018-06-27T07:00:41.463Z,50.70
2018-06-27T07:03:11.535Z,53.10
2018-06-27T07:05:41.675Z,53.30
2018-06-27T07:08:11.943Z,52.90
2018-06-27T07:10:42.432Z,53.20
2018-06-27T07:13:12.755Z,53.00
2018-06-27T07:15:43.395Z,52.70
2018-06-27T07:18:13.890Z,52.40
2018-06-27T07:20:52.188Z,51.60
2018-06-27T07:23:22.668Z,52.20
2018-06-27T07:28:23.266Z,49.40
2018-06-27T07:30:53.555Z,49.70
2018-06-27T07:33:23.905Z,49.70
2018-06-27T07:36:14.636Z,49.90
2018-06-27T07:38:45.025Z,48.00
2018-06-27T07:41:15.476Z,48.70
2018-06-27T07:43:45.848Z,49.50
2018-06-27T07:46:16.341Z,50.10
2018-06-27T07:48:46.729Z,50.60
2018-06-27T07:51:17.201Z,50.70
2018-06-27T07:53:47.213Z,50.60
2018-06-27T07:56:17.573Z,51.00
2018-06-27T07:58:48.028Z,49.50
2018-06-27T08:01:18.439Z,48.50
2018-06-27T08:03:49.222Z,44.80
2018-06-27T08:06:19.656Z,47.20
2018-06-27T08:08:50.431Z,46.60
2018-06-27T08:11:20.528Z,49.20
2018-06-27T08:13:50.741Z,49.60
2018-06-27T08:16:21.328Z,48.20
2018-06-27T08:18:52.012Z,46.30
2018-06-27T08:21:22.224Z,47.70
2018-06-27T08:23:52.552Z,46.00
2018-06-27T08:26:22.900Z,48.50
2018-06-27T08:28:53.389Z,47.50
2018-06-27T08:31:23.532Z,46.90
2018-06-27T08:33:54.040Z,44.40
2018-06-27T08:36:24.204Z,42.60
2018-06-27T08:38:54.536Z,43.50
2018-06-27T08:41:25.110Z,44.90
2018-06-27T08:43:55.616Z,43.20
2018-06-27T08:46:26.159Z,45.20
2018-06-27T08:48:56.312Z,43.70
2018-06-27T08:51:26.865Z,43.40
2018-06-27T08:53:57.235Z,44.00
2018-06-27T08:56:27.209Z,46.50
2018-06-27T08:58:57.675Z,44.30
2018-06-27T09:01:28.147Z,45.70
2018-06-27T09:03:58.252Z,44.30
2018-06-27T09:06:28.607Z,43.40
2018-06-27T09:08:58.969Z,43.50
2018-06-27T09:11:29.055Z,43.80
2018-06-27T09:13:59.256Z,42.10
2018-06-27T09:16:29.407Z,41.20
2018-06-27T09:19:00.035Z,41.00
2018-06-27T09:21:30.430Z,39.90
2018-06-27T09:24:00.757Z,38.30
2018-06-27T09:26:31.147Z,38.20
2018-06-27T09:29:01.474Z,40.10
2018-06-27T09:31:31.786Z,40.90
2018-06-27T09:34:01.948Z,41.60
2018-06-27T09:36:32.264Z,40.30
2018-06-27T09:39:02.836Z,40.20
2018-06-27T09:41:33.344Z,38.50
2018-06-27T09:44:03.910Z,37.60
2018-06-27T09:46:35.052Z,38.00
2018-06-27T09:49:05.522Z,37.60
2018-06-27T09:51:35.895Z,38.70
2018-06-27T09:54:06.560Z,37.70
2018-06-27T09:56:37.070Z,34.50
2018-06-27T09:59:07.155Z,35.10
2018-06-27T10:01:37.588Z,33.80
2018-06-27T10:04:08.070Z,35.60
2018-06-27T10:06:38.629Z,35.80
2018-06-27T10:09:10.611Z,36.00
2018-06-27T10:11:41.107Z,35.10
2018-06-27T10:14:11.583Z,35.90
2018-06-27T10:16:41.989Z,36.10
2018-06-27T10:19:12.404Z,34.90
2018-06-27T10:21:42.439Z,34.80
2018-06-27T10:24:12.529Z,36.90
2018-06-27T10:26:43.092Z,36.50
2018-06-27T10:29:13.432Z,33.30
2018-06-27T10:31:43.776Z,32.80
2018-06-27T10:34:13.874Z,34.30
2018-06-27T10:36:44.270Z,35.00
2018-06-27T10:39:14.806Z,36.50
2018-06-27T10:41:45.281Z,33.80
2018-06-27T10:44:15.816Z,35.10
2018-06-27T10:46:45.816Z,34.80
2018-06-27T10:49:16.298Z,34.60
2018-06-27T10:51:46.455Z,37.70
2018-06-27T10:54:16.680Z,36.70
2018-06-27T10:56:47.176Z,37.10
2018-06-27T10:59:17.769Z,33.50
2018-06-27T11:01:48.281Z,32.40
2018-06-27T11:04:18.859Z,31.00
2018-06-27T11:06:49.278Z,31.80
2018-06-27T11:09:19.736Z,30.00
2018-06-27T11:11:49.730Z,30.60
2018-06-27T11:14:20.138Z,31.70
2018-06-27T11:16:50.457Z,32.50
2018-06-27T11:19:20.822Z,30.60
2018-06-27T11:21:51.435Z,31.20
2018-06-27T11:24:21.795Z,31.30
2018-06-27T11:26:52.458Z,30.80
2018-06-27T11:29:22.834Z,31.10
2018-06-27T11:34:22.864Z,29.90
2018-06-27T11:36:53.589Z,31.00
2018-06-27T11:39:23.923Z,31.30
2018-06-27T11:41:54.369Z,30.30
2018-06-27T11:44:24.799Z,30.00
2018-06-27T11:46:55.336Z,29.50
2018-06-27T11:49:26.113Z,30.10
2018-06-27T11:51:56.603Z,30.30
2018-06-27T11:54:26.909Z,32.50
2018-06-27T11:56:57.404Z,33.00
2018-06-27T11:59:27.572Z,33.40
2018-06-27T12:01:57.867Z,34.00
2018-06-27T12:04:28.563Z,32.70
2018-06-27T12:06:59.646Z,31.50
2018-06-27T12:11:59.903Z,34.20
2018-06-27T12:14:30.316Z,35.60
2018-06-27T12:17:00.794Z,35.90
2018-06-27T12:19:31.515Z,32.70
2018-06-27T12:22:02.068Z,31.00
2018-06-27T12:24:32.673Z,30.80
2018-06-27T12:27:03.026Z,30.60
2018-06-27T12:29:33.497Z,30.90
2018-06-27T12:32:03.914Z,30.40
2018-06-27T12:34:34.330Z,29.10
2018-06-27T12:37:04.827Z,29.30
2018-06-27T12:39:35.248Z,28.80
2018-06-27T12:42:05.679Z,27.80
2018-06-27T12:47:05.997Z,28.30
2018-06-27T12:49:36.498Z,28.70
2018-06-27T12:52:07.076Z,29.40
2018-06-27T12:55:04.816Z,28.80
2018-06-27T12:57:35.304Z,27.90
2018-06-27T13:00:07.768Z,26.50
2018-06-27T13:02:37.820Z,26.60
2018-06-27T13:05:09.889Z,25.40
2018-06-27T13:07:39.963Z,26.80
2018-06-27T13:10:10.610Z,26.90
2018-06-27T13:12:40.959Z,26.60
2018-06-27T13:15:11.408Z,25.00
2018-06-27T13:17:41.420Z,25.10
2018-06-27T13:20:11.659Z,24.00
2018-06-27T13:25:11.875Z,24.10
2018-06-27T13:27:42.531Z,25.10
2018-06-27T13:30:13.187Z,27.80
2018-06-27T13:32:43.869Z,29.30
2018-06-27T13:35:14.243Z,32.20
2018-06-27T13:37:44.359Z,35.00
2018-06-27T13:40:14.420Z,37.50
2018-06-27T13:42:44.834Z,38.80
2018-06-27T13:45:14.920Z,40.00
2018-06-27T13:47:45.367Z,40.50
2018-06-27T13:50:15.700Z,40.60
2018-06-27T13:52:46.288Z,41.10
2018-06-27T13:55:22.694Z,40.60
2018-06-27T13:57:53.154Z,42.10
2018-06-27T14:00:23.730Z,42.30
2018-06-27T14:02:53.935Z,42.00
2018-06-27T14:05:24.121Z,43.40
2018-06-27T14:07:54.216Z,43.80
2018-06-27T14:10:24.738Z,45.30
2018-06-27T14:12:55.488Z,45.60
2018-06-27T14:15:25.990Z,46.80
2018-06-27T14:17:56.563Z,47.50
2018-06-27T14:20:26.917Z,48.60
2018-06-27T14:22:57.551Z,48.10
2018-06-27T14:25:28.115Z,47.40
2018-06-27T14:27:58.506Z,43.00
2018-06-27T14:30:28.934Z,42.50
2018-06-27T14:32:59.620Z,41.30
2018-06-27T14:35:30.081Z,40.80
2018-06-27T14:38:00.789Z,40.70
2018-06-27T14:40:31.515Z,41.70
2018-06-27T14:43:01.961Z,43.00
2018-06-27T14:48:02.680Z,42.70
2018-06-27T14:50:33.148Z,43.10
2018-06-27T14:53:03.784Z,44.30
2018-06-27T14:55:34.208Z,45.10
2018-06-27T14:58:04.607Z,45.60
2018-06-27T15:00:34.951Z,45.70
2018-06-27T15:03:05.365Z,46.10
2018-06-27T15:05:35.991Z,47.30
2018-06-27T15:08:06.541Z,48.20
2018-06-27T15:10:36.866Z,47.00
2018-06-27T15:13:07.332Z,47.50
2018-06-27T15:15:37.969Z,47.40
2018-06-27T15:18:08.429Z,47.10
2018-06-27T15:20:39.084Z,46.00
2018-06-27T15:23:09.581Z,43.40
2018-06-27T15:25:39.990Z,41.40
2018-06-27T15:28:10.395Z,42.80
2018-06-27T15:30:40.886Z,43.50
2018-06-27T15:33:11.382Z,44.30
2018-06-27T15:35:41.783Z,44.80
2018-06-27T15:38:11.992Z,44.40
2018-06-27T15:40:42.490Z,44.20
2018-06-27T15:43:14.760Z,45.50
2018-06-27T15:45:44.987Z,45.90
2018-06-27T15:48:15.811Z,47.50
2018-06-27T15:50:46.128Z,48.40
2018-06-27T15:53:16.217Z,46.70
2018-06-27T15:55:46.804Z,45.00
2018-06-27T15:58:17.567Z,41.80
2018-06-27T16:00:47.964Z,43.90
2018-06-27T16:03:18.396Z,43.50
2018-06-27T16:06:05.851Z,43.20
2018-06-27T16:08:36.377Z,44.70
2018-06-27T16:11:06.996Z,45.90
2018-06-27T16:13:37.846Z,45.00
2018-06-27T16:16:09.637Z,43.80
2018-06-27T16:18:40.188Z,42.80
2018-06-27T16:21:10.759Z,41.30
2018-06-27T16:23:41.269Z,42.00
2018-06-27T16:26:11.373Z,41.10
2018-06-27T16:28:41.592Z,40.40
2018-06-27T16:31:17.624Z,38.90
2018-06-27T16:33:48.036Z,38.30
2018-06-27T16:36:18.190Z,34.40
2018-06-27T16:38:48.791Z,31.30
2018-06-27T16:41:19.228Z,31.40
2018-06-27T16:43:49.693Z,29.70
2018-06-27T16:46:37.690Z,29.60
2018-06-27T16:49:08.663Z,30.70
2018-06-27T16:51:41.595Z,32.10
2018-06-27T16:54:12.069Z,33.30
2018-06-27T16:56:42.460Z,33.80
2018-06-27T16:59:12.908Z,34.00
2018-06-27T17:01:43.561Z,34.30
2018-06-27T17:04:14.084Z,33.50
2018-06-27T17:06:44.623Z,32.30
2018-06-27T17:09:15.229Z,33.00
2018-06-27T17:11:45.775Z,32.50
2018-06-27T17:14:16.230Z,30.00
2018-06-27T17:19:16.848Z,29.80
2018-06-27T17:21:47.273Z,29.40
2018-06-27T17:27:24.584Z,30.30
2018-06-27T17:29:55.098Z,31.50
2018-06-27T17:32:32.650Z,30.00
2018-06-27T17:35:03.727Z,30.70
2018-06-27T17:37:35.397Z,30.60
2018-06-27T17:40:06.766Z,30.40
2018-06-27T17:42:37.171Z,29.60
2018-06-27T17:45:07.970Z,29.00
2018-06-27T17:47:38.522Z,29.40
2018-06-27T17:50:09.023Z,29.10
2018-06-27T17:52:40.541Z,29.30
2018-06-27T17:55:16.723Z,29.10
2018-06-27T18:00:17.373Z,29.20
2018-06-27T18:02:47.710Z,29.10
2018-06-27T18:05:36.480Z,29.60
2018-06-27T18:08:06.877Z,29.50
2018-06-27T18:10:37.391Z,29.70
2018-06-27T18:13:07.879Z,28.90
2018-06-27T18:15:38.391Z,29.00
2018-06-27T18:21:08.839Z,30.00
2018-06-27T18:23:39.359Z,29.80
2018-06-27T18:26:09.879Z,29.70
2018-06-27T18:28:40.271Z,31.30
2018-06-27T18:31:10.795Z,33.10
2018-06-27T18:33:41.204Z,36.00
2018-06-27T18:36:11.893Z,38.90
2018-06-27T18:38:42.336Z,40.70
2018-06-27T18:43:53.459Z,43.30
2018-06-27T18:46:24.056Z,44.10
2018-06-27T18:49:02.350Z,45.00
2018-06-27T18:51:32.852Z,45.70
2018-06-27T18:54:03.367Z,46.30
2018-06-27T18:56:34.575Z,46.70
2018-06-27T18:59:05.029Z,46.80
2018-06-27T19:01:36.713Z,47.60
2018-06-27T19:04:07.315Z,47.90
2018-06-27T19:06:43.336Z,48.30
2018-06-27T19:09:14.083Z,48.40
2018-06-27T19:11:44.617Z,48.70
2018-06-27T19:14:15.140Z,49.10
2018-06-27T19:17:03.132Z,49.60
2018-06-27T19:19:33.534Z,50.20
2018-06-27T19:22:09.636Z,50.50
2018-06-27T19:24:40.461Z,51.10
2018-06-27T19:27:11.092Z,51.50
2018-06-27T19:29:41.703Z,52.00
2018-06-27T19:32:12.235Z,51.80
2018-06-27T19:34:42.938Z,51.80
2018-06-27T19:37:14.512Z,51.70
2018-06-27T19:39:45.280Z,52.00
2018-06-27T19:42:15.834Z,52.30
2018-06-27T19:47:16.439Z,53.00
2018-06-27T19:49:47.477Z,53.10
2018-06-27T19:52:18.177Z,54.00
2018-06-27T19:54:53.095Z,53.30
2018-06-27T19:57:24.812Z,53.50
2018-06-27T19:59:55.240Z,53.30
2018-06-27T20:02:25.709Z,53.30
2018-06-27T20:04:56.145Z,53.50
2018-06-27T20:07:26.716Z,54.30
2018-06-27T20:12:30.515Z,54.80
2018-06-27T20:15:01.066Z,54.60
2018-06-27T20:17:31.544Z,54.50
2018-06-27T20:20:01.841Z,54.50
2018-06-27T20:22:32.408Z,54.90
2018-06-27T20:25:04.841Z,55.30
2018-06-27T20:27:35.405Z,55.50
2018-06-27T20:30:13.236Z,56.50
2018-06-27T20:32:43.856Z,55.60
2018-06-27T20:35:14.301Z,55.60
2018-06-27T20:37:44.941Z,55.80
2018-06-27T20:40:15.487Z,55.30
2018-06-27T20:42:46.483Z,55.30
2018-06-27T20:45:27.848Z,55.10
2018-06-27T20:47:58.307Z,55.30
2018-06-27T20:50:39.495Z,55.00
2018-06-27T20:53:10.140Z,55.00
2018-06-27T20:55:40.653Z,54.80
2018-06-27T20:58:11.345Z,54.70
2018-06-27T21:03:12.226Z,54.30
2018-06-27T21:05:42.860Z,54.30
2018-06-27T21:10:45.767Z,54.80
2018-06-27T21:13:16.503Z,54.40
2018-06-27T21:15:47.076Z,55.10
2018-06-27T21:18:30.905Z,55.60
2018-06-27T21:21:13.224Z,56.00
2018-06-27T21:23:47.651Z,56.40
2018-06-27T21:26:22.546Z,57.00
2018-06-27T21:28:54.084Z,57.20
2018-06-27T21:31:25.476Z,57.40
2018-06-27T21:34:16.151Z,57.40
2018-06-27T21:36:48.643Z,57.30
2018-06-27T21:39:25.621Z,56.90
2018-06-27T21:42:00.288Z,56.80
2018-06-27T21:44:30.736Z,57.00
2018-06-27T21:47:01.327Z,56.90
2018-06-27T21:49:31.961Z,57.20
2018-06-27T21:52:02.359Z,56.70
2018-06-27T21:57:02.835Z,56.80
2018-06-27T21:59:33.119Z,57.20
2018-06-27T22:02:03.720Z,57.50
2018-06-27T22:04:34.259Z,58.00
2018-06-27T22:12:05.862Z,58.50
2018-06-27T22:14:36.507Z,58.80
2018-06-27T22:17:07.009Z,59.10
2018-06-27T22:19:37.504Z,59.40
2018-06-27T22:22:07.902Z,59.70
2018-06-27T22:24:38.345Z,60.10
2018-06-27T22:27:08.915Z,60.10
2018-06-27T22:29:39.596Z,60.60
2018-06-27T22:32:11.408Z,60.50
2018-06-27T22:34:44.099Z,60.70
2018-06-27T22:37:14.560Z,60.90
2018-06-27T22:39:45.080Z,61.10
2018-06-27T22:42:15.424Z,62.10
2018-06-27T22:44:45.600Z,62.50
2018-06-27T22:47:32.295Z,63.10
2018-06-27T22:50:02.875Z,63.20
2018-06-27T22:52:33.312Z,63.80
2018-06-27T22:55:04.823Z,62.80
2018-06-27T23:00:25.646Z,64.00
2018-06-27T23:03:07.360Z,63.70
2018-06-27T23:05:37.975Z,63.90
2018-06-27T23:11:08.668Z,64.20
2018-06-27T23:13:39.286Z,64.30
2018-06-27T23:16:09.634Z,64.70
2018-06-27T23:18:40.139Z,65.40
2018-06-27T23:21:10.524Z,66.20
2018-06-27T23:23:41.181Z,66.30
2018-06-27T23:26:12.243Z,66.50
2018-06-27T23:28:42.839Z,66.80
2018-06-27T23:31:13.360Z,67.00
2018-06-27T23:33:44.124Z,67.30
2018-06-27T23:36:14.772Z,67.70
2018-06-27T23:38:45.281Z,67.00
2018-06-27T23:41:15.626Z,67.70
2018-06-27T23:44:10.745Z,67.40
2018-06-27T23:46:41.472Z,67.60
2018-06-27T23:49:12.325Z,67.20
2018-06-27T23:51:42.873Z,68.40
2018-06-27T23:54:13.622Z,67.60
2018-06-27T23:56:44.137Z,67.10
2018-06-27T23:59:14.692Z,66.80
